ZKDSR NZAR-NZAR

Flight info

Callsign ZKDSR
Flight time 1h 13m
Altitude 8000
Route HUNTY
Aircraft DA42/L-SBDGRY/S

Departure

Time 2026-05-06 04:44
Airport Ardmore Airport (NZAR)

Arrival

Time 2026-05-06 05:58
Airport Ardmore Airport (NZAR)
Time Latitude Longitude Altitude Speed Heading
2026-05-06 04:33 -37.03646 174.97014 106 ft 0 kts 45°
2026-05-06 04:41 -37.03639 174.97020 110 ft 3 kts 11°
2026-05-06 04:41 -37.03590 174.96972 110 ft 11 kts 316°
2026-05-06 04:42 -37.03535 174.96929 111 ft 8 kts 341°
2026-05-06 04:42 -37.03495 174.96926 112 ft 0 kts 47°
2026-05-06 04:43 -37.03404 174.97042 112 ft 48 kts 46°
2026-05-06 04:43 -37.03069 174.97465 154 ft 82 kts 42°
2026-05-06 04:43 -37.02635 174.97969 427 ft 88 kts 39°
2026-05-06 04:44 -37.02133 174.98481 610 ft 101 kts 48°
2026-05-06 04:44 -37.01769 174.99292 784 ft 113 kts 61°
2026-05-06 04:44 -37.01374 175.00209 946 ft 125 kts 59°
2026-05-06 04:44 -37.01212 175.01276 1140 ft 131 kts 96°
2026-05-06 04:45 -37.01594 175.02324 1349 ft 133 kts 112°
2026-05-06 04:45 -37.02085 175.03281 1536 ft 135 kts 131°
2026-05-06 04:45 -37.02952 175.03828 1754 ft 139 kts 156°
2026-05-06 04:45 -37.03867 175.04213 1953 ft 138 kts 155°
2026-05-06 04:46 -37.04814 175.04591 1998 ft 149 kts 158°
2026-05-06 04:46 -37.05827 175.05022 1982 ft 156 kts 158°
2026-05-06 04:46 -37.06860 175.05479 1985 ft 158 kts 158°
2026-05-06 04:46 -37.07875 175.05940 1987 ft 157 kts 158°
2026-05-06 04:47 -37.08898 175.06393 1985 ft 155 kts 157°
2026-05-06 04:47 -37.09912 175.06843 2010 ft 153 kts 157°
2026-05-06 04:47 -37.10901 175.07275 2116 ft 148 kts 158°
2026-05-06 04:47 -37.11852 175.07688 2258 ft 141 kts 157°
2026-05-06 04:48 -37.12777 175.08092 2411 ft 140 kts 157°
2026-05-06 04:48 -37.13702 175.08491 2560 ft 141 kts 158°
2026-05-06 04:48 -37.14632 175.08900 2711 ft 142 kts 157°
2026-05-06 04:48 -37.15582 175.09310 2862 ft 146 kts 157°
2026-05-06 04:49 -37.16559 175.09732 3016 ft 151 kts 157°
2026-05-06 04:49 -37.17554 175.10153 3164 ft 151 kts 159°
2026-05-06 04:49 -37.18566 175.10580 3320 ft 154 kts 157°
2026-05-06 04:49 -37.19585 175.11017 3463 ft 155 kts 158°
2026-05-06 04:50 -37.20604 175.11447 3620 ft 154 kts 157°
2026-05-06 04:50 -37.21616 175.11894 3769 ft 154 kts 157°
2026-05-06 04:50 -37.22630 175.12344 3922 ft 154 kts 157°
2026-05-06 04:50 -37.23633 175.12786 4065 ft 155 kts 157°
2026-05-06 04:51 -37.24649 175.13227 4217 ft 154 kts 158°
2026-05-06 04:51 -37.25659 175.13671 4369 ft 153 kts 157°
2026-05-06 04:51 -37.26664 175.14113 4519 ft 153 kts 158°
2026-05-06 04:51 -37.27669 175.14553 4672 ft 153 kts 158°
2026-05-06 04:52 -37.28676 175.14982 4821 ft 153 kts 163°
2026-05-06 04:52 -37.29744 175.15044 4977 ft 155 kts 184°
2026-05-06 04:52 -37.30815 175.14872 5132 ft 155 kts 186°
2026-05-06 04:52 -37.31883 175.14680 5281 ft 155 kts 187°
2026-05-06 04:53 -37.32894 175.14217 5429 ft 155 kts 207°
2026-05-06 04:53 -37.33848 175.13583 5575 ft 156 kts 208°
2026-05-06 04:53 -37.34832 175.12922 5584 ft 165 kts 208°
2026-05-06 04:53 -37.35845 175.12235 5581 ft 170 kts 210°
2026-05-06 04:54 -37.36897 175.11535 5578 ft 173 kts 201°
2026-05-06 04:54 -37.38041 175.11079 5577 ft 172 kts 196°
2026-05-06 04:54 -37.39190 175.10679 5575 ft 170 kts 196°
2026-05-06 04:54 -37.40327 175.10291 5574 ft 167 kts 195°
2026-05-06 04:55 -37.41445 175.09948 5576 ft 164 kts 193°
2026-05-06 04:55 -37.42556 175.09642 5575 ft 162 kts 192°
2026-05-06 04:55 -37.43658 175.09340 5578 ft 162 kts 192°
2026-05-06 04:55 -37.44763 175.09036 5575 ft 162 kts 192°
2026-05-06 04:56 -37.45861 175.08736 5576 ft 161 kts 192°
2026-05-06 04:56 -37.46947 175.08437 5574 ft 159 kts 193°
2026-05-06 04:56 -37.48031 175.08274 5574 ft 157 kts 169°
2026-05-06 04:56 -37.49050 175.08714 5585 ft 154 kts 155°
2026-05-06 04:57 -37.50036 175.09248 5583 ft 154 kts 154°
2026-05-06 04:57 -37.51026 175.09784 5587 ft 156 kts 154°
2026-05-06 04:57 -37.52036 175.10335 5586 ft 159 kts 154°
2026-05-06 04:57 -37.53054 175.10910 5587 ft 161 kts 154°
2026-05-06 04:58 -37.54064 175.11487 5589 ft 162 kts 154°
2026-05-06 04:58 -37.55091 175.12076 5587 ft 162 kts 154°
2026-05-06 04:58 -37.56112 175.12671 5589 ft 162 kts 154°
2026-05-06 04:58 -37.57133 175.13262 5589 ft 161 kts 153°
2026-05-06 04:59 -37.58159 175.13853 5590 ft 162 kts 153°
2026-05-06 04:59 -37.59188 175.14437 5591 ft 162 kts 154°
2026-05-06 04:59 -37.60217 175.15025 5590 ft 162 kts 153°
2026-05-06 04:59 -37.61246 175.15614 5594 ft 163 kts 153°
2026-05-06 05:00 -37.62275 175.16211 5586 ft 163 kts 155°
2026-05-06 05:00 -37.62991 175.16509 5588 ft 163 kts 166°
2026-05-06 05:00 -37.64460 175.16931 5588 ft 164 kts 168°
2026-05-06 05:00 -37.65575 175.17238 5589 ft 164 kts 167°
2026-05-06 05:01 -37.66695 175.17544 5525 ft 165 kts 168°
2026-05-06 05:01 -37.67439 175.17746 5477 ft 165 kts 168°
2026-05-06 05:01 -37.68565 175.18048 5399 ft 164 kts 168°
2026-05-06 05:01 -37.69677 175.18344 5327 ft 162 kts 168°
2026-05-06 05:02 -37.70768 175.18636 5249 ft 158 kts 167°
2026-05-06 05:02 -37.71846 175.18742 5175 ft 154 kts 181°
2026-05-06 05:02 -37.72907 175.18758 5085 ft 152 kts 168°
2026-05-06 05:02 -37.73815 175.19385 5020 ft 148 kts 139°
2026-05-06 05:03 -37.74602 175.20215 4986 ft 144 kts 136°
2026-05-06 05:03 -37.75342 175.21064 4989 ft 144 kts 134°
2026-05-06 05:03 -37.76077 175.21935 4989 ft 145 kts 134°
2026-05-06 05:03 -37.76816 175.22813 4989 ft 146 kts 133°
2026-05-06 05:04 -37.77542 175.23712 4991 ft 146 kts 133°
2026-05-06 05:04 -37.78255 175.24602 4992 ft 146 kts 132°
2026-05-06 05:04 -37.78986 175.25498 4990 ft 147 kts 133°
2026-05-06 05:04 -37.79714 175.26406 4990 ft 146 kts 131°
2026-05-06 05:05 -37.80402 175.27348 4991 ft 146 kts 130°
2026-05-06 05:05 -37.81087 175.28298 4969 ft 147 kts 130°
2026-05-06 05:05 -37.81799 175.29280 4838 ft 154 kts 129°
2026-05-06 05:05 -37.82530 175.30293 4709 ft 157 kts 130°
2026-05-06 05:06 -37.83264 175.31323 4584 ft 159 kts 129°
2026-05-06 05:06 -37.84014 175.32360 4458 ft 160 kts 129°
2026-05-06 05:06 -37.84767 175.33388 4329 ft 158 kts 130°
2026-05-06 05:06 -37.85515 175.34398 4204 ft 157 kts 130°
2026-05-06 05:07 -37.86248 175.35401 4080 ft 156 kts 130°
2026-05-06 05:07 -37.86980 175.36415 3992 ft 153 kts 130°
2026-05-06 05:07 -37.87683 175.37390 3992 ft 147 kts 128°
2026-05-06 05:07 -37.88310 175.38382 3989 ft 142 kts 124°
2026-05-06 05:08 -37.88824 175.39422 3990 ft 138 kts 116°
2026-05-06 05:08 -37.89251 175.40482 3988 ft 136 kts 112°
2026-05-06 05:08 -37.89661 175.41563 3989 ft 137 kts 112°
2026-05-06 05:08 -37.90074 175.42662 3985 ft 139 kts 112°
2026-05-06 05:09 -37.90514 175.43751 3979 ft 142 kts 125°
2026-05-06 05:09 -37.91347 175.44398 3998 ft 144 kts 164°
2026-05-06 05:09 -37.92324 175.44374 3999 ft 142 kts 204°
2026-05-06 05:09 -37.93164 175.43728 4005 ft 141 kts 218°
2026-05-06 05:10 -37.93964 175.43000 4005 ft 141 kts 219°
2026-05-06 05:10 -37.94758 175.42266 3996 ft 142 kts 219°
2026-05-06 05:10 -37.95544 175.41539 3999 ft 142 kts 219°
2026-05-06 05:10 -37.96344 175.40802 3998 ft 142 kts 219°
2026-05-06 05:11 -37.97148 175.40061 3999 ft 143 kts 219°
2026-05-06 05:11 -37.97952 175.39316 3993 ft 143 kts 219°
2026-05-06 05:11 -37.98754 175.38573 3993 ft 143 kts 219°
2026-05-06 05:11 -37.99557 175.37833 3993 ft 143 kts 219°
2026-05-06 05:12 -38.00360 175.37091 3991 ft 143 kts 219°
2026-05-06 05:12 -38.01159 175.36348 3989 ft 142 kts 219°
2026-05-06 05:12 -38.01957 175.35604 3990 ft 142 kts 219°
2026-05-06 05:12 -38.02754 175.34863 3990 ft 142 kts 219°
2026-05-06 05:13 -38.03555 175.34124 3993 ft 143 kts 219°
2026-05-06 05:13 -38.04357 175.33380 3993 ft 143 kts 219°
2026-05-06 05:13 -38.05160 175.32638 3996 ft 143 kts 219°
2026-05-06 05:13 -38.05966 175.31903 3994 ft 143 kts 218°
2026-05-06 05:14 -38.06768 175.31184 4004 ft 143 kts 218°
2026-05-06 05:14 -38.07582 175.30453 3995 ft 143 kts 218°
2026-05-06 05:14 -38.08328 175.29639 3970 ft 141 kts 240°
2026-05-06 05:14 -38.08529 175.28460 3851 ft 140 kts 279°
2026-05-06 05:15 -38.08366 175.27228 3734 ft 144 kts 284°
2026-05-06 05:15 -38.08093 175.26004 3597 ft 144 kts 304°
2026-05-06 05:15 -38.07310 175.25297 3485 ft 139 kts 350°
2026-05-06 05:15 -38.06384 175.25411 3494 ft 132 kts 12°
2026-05-06 05:16 -38.05508 175.25758 3491 ft 132 kts 20°
2026-05-06 05:16 -38.04701 175.26299 3491 ft 131 kts 31°
2026-05-06 05:16 -38.03946 175.26935 3487 ft 129 kts 28°
2026-05-06 05:16 -38.03125 175.27356 3487 ft 127 kts 17°
2026-05-06 05:17 -38.02270 175.27715 3385 ft 132 kts 17°
2026-05-06 05:17 -38.01378 175.28080 3262 ft 137 kts 17°
2026-05-06 05:17 -38.00461 175.28409 3136 ft 137 kts 13°
2026-05-06 05:17 -37.99526 175.28671 3010 ft 138 kts 12°
2026-05-06 05:18 -37.98590 175.28920 2881 ft 137 kts 12°
2026-05-06 05:18 -37.97655 175.29171 2756 ft 137 kts 12°
2026-05-06 05:18 -37.96725 175.29480 2553 ft 138 kts 16°
2026-05-06 05:18 -37.95810 175.29835 2351 ft 137 kts 17°
2026-05-06 05:19 -37.94952 175.30160 2144 ft 119 kts 17°
2026-05-06 05:19 -37.94301 175.30400 1966 ft 86 kts 16°
2026-05-06 05:19 -37.93740 175.30585 1757 ft 82 kts 16°
2026-05-06 05:19 -37.93160 175.30772 1566 ft 88 kts 15°
2026-05-06 05:20 -37.92596 175.30960 1480 ft 81 kts 16°
2026-05-06 05:20 -37.92066 175.31123 1484 ft 78 kts 16°
2026-05-06 05:20 -37.91533 175.31279 1490 ft 79 kts 14°
2026-05-06 05:20 -37.91006 175.31525 1429 ft 83 kts 24°
2026-05-06 05:21 -37.90449 175.31788 1263 ft 89 kts 22°
2026-05-06 05:21 -37.89827 175.32058 1012 ft 95 kts 17°
2026-05-06 05:21 -37.89167 175.32294 748 ft 99 kts 18°
2026-05-06 05:21 -37.88517 175.32520 545 ft 97 kts 15°
2026-05-06 05:22 -37.87885 175.32767 350 ft 97 kts 21°
2026-05-06 05:22 -37.87245 175.33012 209 ft 90 kts 17°
2026-05-06 05:22 -37.86749 175.33193 160 ft 54 kts 15°
2026-05-06 05:22 -37.86273 175.33364 199 ft 90 kts 18°
2026-05-06 05:23 -37.85645 175.33571 489 ft 101 kts 15°
2026-05-06 05:23 -37.84924 175.33795 703 ft 113 kts 15°
2026-05-06 05:23 -37.83287 175.34276 1107 ft 126 kts 16°
2026-05-06 05:24 -37.82431 175.34542 1305 ft 127 kts 16°
2026-05-06 05:24 -37.81574 175.34810 1504 ft 127 kts 15°
2026-05-06 05:24 -37.80722 175.35073 1700 ft 128 kts 15°
2026-05-06 05:24 -37.79862 175.35337 1905 ft 128 kts 14°
2026-05-06 05:25 -37.78997 175.35608 2116 ft 129 kts 14°
2026-05-06 05:25 -37.78122 175.35883 2319 ft 130 kts 14°
2026-05-06 05:25 -37.77217 175.35877 2513 ft 131 kts 353°
2026-05-06 05:25 -37.76317 175.35691 2716 ft 131 kts 352°
2026-05-06 05:26 -37.75425 175.35502 2951 ft 128 kts 352°
2026-05-06 05:26 -37.74560 175.35319 3199 ft 124 kts 352°
2026-05-06 05:26 -37.73721 175.35122 3433 ft 122 kts 348°
2026-05-06 05:26 -37.72890 175.34873 3637 ft 123 kts 348°
2026-05-06 05:27 -37.72048 175.34617 3835 ft 124 kts 348°
2026-05-06 05:27 -37.71202 175.34361 4035 ft 125 kts 348°
2026-05-06 05:27 -37.70362 175.34106 4233 ft 126 kts 348°
2026-05-06 05:27 -37.69503 175.33848 4433 ft 127 kts 348°
2026-05-06 05:28 -37.68640 175.33590 4634 ft 128 kts 347°
2026-05-06 05:28 -37.67771 175.33332 4838 ft 129 kts 348°
2026-05-06 05:28 -37.66907 175.33078 5093 ft 126 kts 347°
2026-05-06 05:28 -37.66068 175.32830 5368 ft 122 kts 348°
2026-05-06 05:29 -37.65240 175.32589 5591 ft 125 kts 348°
2026-05-06 05:29 -37.64335 175.32330 5588 ft 140 kts 348°
2026-05-06 05:29 -37.63346 175.32109 5587 ft 148 kts 358°
2026-05-06 05:29 -37.62300 175.32145 5590 ft 152 kts
2026-05-06 05:30 -37.61228 175.32203 5591 ft 155 kts
2026-05-06 05:30 -37.60151 175.32256 5591 ft 155 kts
2026-05-06 05:30 -37.59085 175.32308 5592 ft 155 kts
2026-05-06 05:30 -37.58004 175.32357 5591 ft 155 kts
2026-05-06 05:31 -37.56910 175.32404 5439 ft 160 kts
2026-05-06 05:31 -37.55792 175.32451 5273 ft 161 kts
2026-05-06 05:31 -37.54675 175.32497 5095 ft 161 kts
2026-05-06 05:31 -37.53556 175.32544 4914 ft 161 kts
2026-05-06 05:32 -37.52438 175.32590 4741 ft 160 kts
2026-05-06 05:32 -37.51345 175.32636 4592 ft 152 kts
2026-05-06 05:32 -37.50332 175.32675 4595 ft 141 kts
2026-05-06 05:32 -37.49375 175.32633 4594 ft 135 kts 359°
2026-05-06 05:33 -37.48444 175.32579 4592 ft 132 kts 358°
2026-05-06 05:33 -37.47526 175.32523 4590 ft 131 kts 359°
2026-05-06 05:33 -37.46610 175.32469 4594 ft 132 kts 359°
2026-05-06 05:33 -37.45694 175.32414 4592 ft 133 kts 359°
2026-05-06 05:34 -37.44765 175.32360 4588 ft 134 kts 359°
2026-05-06 05:34 -37.43832 175.32307 4588 ft 134 kts 359°
2026-05-06 05:34 -37.42902 175.32257 4590 ft 134 kts 359°
2026-05-06 05:34 -37.41965 175.32208 4588 ft 135 kts 359°
2026-05-06 05:35 -37.41030 175.32153 4596 ft 135 kts 359°
2026-05-06 05:35 -37.40099 175.32095 4592 ft 135 kts 358°
2026-05-06 05:35 -37.39164 175.32037 4592 ft 135 kts 358°
2026-05-06 05:35 -37.38226 175.31982 4594 ft 135 kts 359°
2026-05-06 05:36 -37.37291 175.31909 4590 ft 134 kts 358°
2026-05-06 05:36 -37.36360 175.31831 4593 ft 134 kts 358°
2026-05-06 05:36 -37.35428 175.31752 4595 ft 134 kts 359°
2026-05-06 05:36 -37.34496 175.31676 4595 ft 134 kts 359°
2026-05-06 05:37 -37.33563 175.31601 4596 ft 134 kts 359°
2026-05-06 05:37 -37.32626 175.31524 4594 ft 135 kts 359°
2026-05-06 05:37 -37.31686 175.31445 4594 ft 136 kts 358°
2026-05-06 05:37 -37.30744 175.31363 4598 ft 136 kts 358°
2026-05-06 05:38 -37.29800 175.31283 4597 ft 135 kts 359°
2026-05-06 05:38 -37.28859 175.31202 4596 ft 135 kts 359°
2026-05-06 05:38 -37.27922 175.31120 4596 ft 135 kts 359°
2026-05-06 05:38 -37.27005 175.31039 4596 ft 134 kts 359°
2026-05-06 05:39 -37.26077 175.30956 4594 ft 133 kts 358°
2026-05-06 05:39 -37.25149 175.30876 4591 ft 134 kts 358°
2026-05-06 05:39 -37.24222 175.30791 4591 ft 133 kts 358°
2026-05-06 05:39 -37.23299 175.30707 4595 ft 134 kts 358°
2026-05-06 05:40 -37.22361 175.30628 4596 ft 135 kts 359°
2026-05-06 05:40 -37.21417 175.30548 4596 ft 136 kts 358°
2026-05-06 05:40 -37.20482 175.30470 4595 ft 136 kts 358°
2026-05-06 05:40 -37.19541 175.30390 4595 ft 136 kts 358°
2026-05-06 05:41 -37.18590 175.30313 4525 ft 140 kts 359°
2026-05-06 05:41 -37.17618 175.30235 4397 ft 145 kts 358°
2026-05-06 05:41 -37.16605 175.30154 4273 ft 146 kts 358°
2026-05-06 05:41 -37.15597 175.30070 4151 ft 145 kts 358°
2026-05-06 05:42 -37.14593 175.29985 4026 ft 144 kts 358°
2026-05-06 05:42 -37.13595 175.29902 3906 ft 143 kts 358°
2026-05-06 05:42 -37.12614 175.29820 3780 ft 140 kts 358°
2026-05-06 05:42 -37.11648 175.29735 3655 ft 138 kts 358°
2026-05-06 05:43 -37.10705 175.29650 3598 ft 131 kts 358°
2026-05-06 05:43 -37.09811 175.29571 3504 ft 127 kts 358°
2026-05-06 05:43 -37.08945 175.29492 3404 ft 123 kts 358°
2026-05-06 05:43 -37.08093 175.29415 3302 ft 122 kts 358°
2026-05-06 05:44 -37.07248 175.29337 3202 ft 121 kts 359°
2026-05-06 05:44 -37.06421 175.29256 3101 ft 120 kts 358°
2026-05-06 05:44 -37.05587 175.29177 3000 ft 120 kts 358°
2026-05-06 05:44 -37.04759 175.29102 2900 ft 119 kts 359°
2026-05-06 05:45 -37.03934 175.29027 2794 ft 119 kts 358°
2026-05-06 05:45 -37.03111 175.28952 2695 ft 119 kts 358°
2026-05-06 05:45 -37.02286 175.28879 2595 ft 119 kts 359°
2026-05-06 05:45 -37.01480 175.28799 2596 ft 114 kts 358°
2026-05-06 05:46 -37.00707 175.28726 2590 ft 109 kts 358°
2026-05-06 05:46 -37.00213 175.28677 2583 ft 106 kts 358°
2026-05-06 05:46 -36.99551 175.28334 2592 ft 106 kts 324°
2026-05-06 05:46 -36.99029 175.27689 2594 ft 105 kts 321°
2026-05-06 05:47 -36.98514 175.27028 2596 ft 109 kts 320°
2026-05-06 05:47 -36.97961 175.26327 2596 ft 118 kts 320°
2026-05-06 05:47 -36.97363 175.25588 2598 ft 123 kts 320°
2026-05-06 05:47 -36.96746 175.24822 2594 ft 126 kts 320°
2026-05-06 05:48 -36.96124 175.24040 2592 ft 127 kts 320°
2026-05-06 05:48 -36.95502 175.23260 2597 ft 127 kts 320°
2026-05-06 05:48 -36.94873 175.22485 2591 ft 129 kts 321°
2026-05-06 05:48 -36.94222 175.21664 2488 ft 137 kts 314°
2026-05-06 05:49 -36.93844 175.20535 2390 ft 144 kts 290°
2026-05-06 05:49 -36.93588 175.19312 2289 ft 147 kts 289°
2026-05-06 05:49 -36.93363 175.18062 2177 ft 149 kts 281°
2026-05-06 05:49 -36.93320 175.16764 2086 ft 150 kts 275°
2026-05-06 05:50 -36.93560 175.15482 1985 ft 155 kts 243°
2026-05-06 05:50 -36.94136 175.14373 1989 ft 150 kts 238°
2026-05-06 05:50 -36.94722 175.13321 1984 ft 145 kts 237°
2026-05-06 05:50 -36.95295 175.12303 1987 ft 144 kts 237°
2026-05-06 05:51 -36.95873 175.11285 1983 ft 143 kts 237°
2026-05-06 05:51 -36.96447 175.10265 1982 ft 143 kts 237°
2026-05-06 05:51 -36.97020 175.09235 1979 ft 146 kts 237°
2026-05-06 05:51 -36.97606 175.08199 1980 ft 146 kts 236°
2026-05-06 05:52 -36.98200 175.07173 1975 ft 145 kts 237°
2026-05-06 05:52 -36.98798 175.06155 1934 ft 146 kts 235°
2026-05-06 05:52 -36.99450 175.05172 1777 ft 147 kts 231°
2026-05-06 05:52 -37.00146 175.04237 1633 ft 147 kts 227°
2026-05-06 05:53 -37.00864 175.03312 1482 ft 149 kts 227°
2026-05-06 05:53 -37.01556 175.02413 1470 ft 138 kts 227°
2026-05-06 05:53 -37.02203 175.01580 1464 ft 132 kts 227°
2026-05-06 05:53 -37.02826 175.00781 1465 ft 126 kts 227°
2026-05-06 05:54 -37.03459 174.99964 1471 ft 134 kts 226°
2026-05-06 05:54 -37.04119 174.99107 1480 ft 139 kts 228°
2026-05-06 05:54 -37.04792 174.98216 1479 ft 142 kts 228°
2026-05-06 05:54 -37.05467 174.97323 1476 ft 143 kts 227°
2026-05-06 05:55 -37.06162 174.96429 1472 ft 143 kts 226°
2026-05-06 05:55 -37.06815 174.95503 1445 ft 142 kts 239°
2026-05-06 05:55 -37.07103 174.94423 1286 ft 115 kts 282°
2026-05-06 05:55 -37.06764 174.93792 1118 ft 71 kts 338°
2026-05-06 05:56 -37.06297 174.93511 1042 ft 74 kts 356°
2026-05-06 05:56 -37.05849 174.93749 995 ft 76 kts 49°
2026-05-06 05:56 -37.05521 174.94289 914 ft 79 kts 47°
2026-05-06 05:56 -37.05119 174.94753 858 ft 80 kts 49°
2026-05-06 05:57 -37.04722 174.95285 751 ft 85 kts 46°
2026-05-06 05:57 -37.04327 174.95869 544 ft 90 kts 44°
2026-05-06 05:57 -37.03887 174.96421 310 ft 86 kts 45°
2026-05-06 05:57 -37.03495 174.96938 155 ft 72 kts 42°
2026-05-06 05:58 -37.03211 174.97286 109 ft 49 kts 49°
2026-05-06 05:58 -37.03053 174.97487 109 ft 26 kts 44°
2026-05-06 05:58 -37.03001 174.97580 109 ft 7 kts 73°
2026-05-06 05:58 -37.03029 174.97619 107 ft 9 kts 217°
2026-05-06 05:59 -37.03076 174.97560 107 ft 11 kts 226°
2026-05-06 05:59 -37.03133 174.97488 107 ft 13 kts 225°
2026-05-06 05:59 -37.03197 174.97406 107 ft 14 kts 227°
2026-05-06 05:59 -37.03268 174.97315 107 ft 16 kts 225°
2026-05-06 06:00 -37.03348 174.97215 106 ft 16 kts 228°
2026-05-06 06:00 -37.03425 174.97117 106 ft 15 kts 226°
2026-05-06 06:00 -37.03503 174.97018 106 ft 17 kts 226°
2026-05-06 06:00 -37.03538 174.96975 106 ft 2 kts 229°
2026-05-06 06:01 -37.03595 174.96973 106 ft 13 kts 133°
2026-05-06 06:01 -37.03619 174.97021 106 ft 12 kts 107°
2026-05-06 06:01 -37.03645 174.97016 106 ft 4 kts 224°